sensor_id;sensor_type;location;lat;lon;timestamp;pressure;altitude;pressure_sealevel;temperature;humidity
19005;BME280;9635;52.078;8.648;2023-03-03T00:00:34;101192.44;;;2.36;69.75
19005;BME280;9635;52.078;8.648;2023-03-03T00:05:37;101181.81;;;2.36;69.75
19005;BME280;9635;52.078;8.648;2023-03-03T00:10:40;101174.66;;;2.38;69.68
19005;BME280;9635;52.078;8.648;2023-03-03T00:15:44;101185.72;;;2.51;69.86
19005;BME280;9635;52.078;8.648;2023-03-03T00:20:48;101192.63;;;2.56;69.38
19005;BME280;9635;52.078;8.648;2023-03-03T00:25:53;101184.78;;;2.53;69.04
19005;BME280;9635;52.078;8.648;2023-03-03T00:30:59;101190.19;;;2.49;68.99
19005;BME280;9635;52.078;8.648;2023-03-03T00:36:23;101189.13;;;2.56;68.97
19005;BME280;9635;52.078;8.648;2023-03-03T00:41:29;101176.81;;;2.53;68.85
19005;BME280;9635;52.078;8.648;2023-03-03T00:46:35;101181.97;;;2.58;68.76
19005;BME280;9635;52.078;8.648;2023-03-03T00:51:38;101187.88;;;2.66;68.85
19005;BME280;9635;52.078;8.648;2023-03-03T00:56:41;101197.69;;;2.64;68.47
19005;BME280;9635;52.078;8.648;2023-03-03T01:01:46;101182.72;;;2.61;68.46
19005;BME280;9635;52.078;8.648;2023-03-03T01:06:48;101188.38;;;2.51;68.34
19005;BME280;9635;52.078;8.648;2023-03-03T01:11:51;101186.50;;;2.54;68.99
19005;BME280;9635;52.078;8.648;2023-03-03T01:16:56;101199.66;;;2.57;68.72
19005;BME280;9635;52.078;8.648;2023-03-03T01:21:59;101197.25;;;2.50;68.56
19005;BME280;9635;52.078;8.648;2023-03-03T01:27:02;101190.09;;;2.52;69.02
19005;BME280;9635;52.078;8.648;2023-03-03T01:32:06;101187.50;;;2.50;68.70
19005;BME280;9635;52.078;8.648;2023-03-03T01:37:09;101188.53;;;2.46;68.72
19005;BME280;9635;52.078;8.648;2023-03-03T01:42:12;101202.66;;;2.47;68.86
19005;BME280;9635;52.078;8.648;2023-03-03T01:47:19;101200.22;;;2.40;68.79
19005;BME280;9635;52.078;8.648;2023-03-03T01:52:25;101174.06;;;2.30;68.77
19005;BME280;9635;52.078;8.648;2023-03-03T01:57:34;101173.44;;;2.22;69.11
19005;BME280;9635;52.078;8.648;2023-03-03T02:02:41;101193.66;;;2.26;69.05
19005;BME280;9635;52.078;8.648;2023-03-03T02:07:44;101189.34;;;2.22;68.81
19005;BME280;9635;52.078;8.648;2023-03-03T02:12:49;101187.66;;;2.19;68.96
19005;BME280;9635;52.078;8.648;2023-03-03T02:17:55;101186.78;;;2.20;69.28
19005;BME280;9635;52.078;8.648;2023-03-03T02:23:03;101189.06;;;2.31;69.18
19005;BME280;9635;52.078;8.648;2023-03-03T02:28:10;101191.50;;;2.37;69.23
19005;BME280;9635;52.078;8.648;2023-03-03T02:33:13;101182.19;;;2.25;69.23
19005;BME280;9635;52.078;8.648;2023-03-03T02:38:20;101186.59;;;2.25;69.49
19005;BME280;9635;52.078;8.648;2023-03-03T02:43:30;101191.25;;;2.18;69.79
19005;BME280;9635;52.078;8.648;2023-03-03T02:48:36;101194.66;;;2.22;69.69
19005;BME280;9635;52.078;8.648;2023-03-03T02:53:39;101192.19;;;2.17;69.97
19005;BME280;9635;52.078;8.648;2023-03-03T02:58:43;101193.69;;;2.24;70.02
19005;BME280;9635;52.078;8.648;2023-03-03T03:03:46;101192.31;;;2.12;69.46
19005;BME280;9635;52.078;8.648;2023-03-03T03:08:53;101191.91;;;1.98;69.28
19005;BME280;9635;52.078;8.648;2023-03-03T03:13:57;101186.03;;;1.88;69.36
19005;BME280;9635;52.078;8.648;2023-03-03T03:19:01;101179.91;;;1.86;69.90
19005;BME280;9635;52.078;8.648;2023-03-03T03:24:05;101175.31;;;1.91;69.74
19005;BME280;9635;52.078;8.648;2023-03-03T03:29:11;101177.09;;;1.92;69.45
19005;BME280;9635;52.078;8.648;2023-03-03T03:34:14;101188.69;;;1.88;69.70
19005;BME280;9635;52.078;8.648;2023-03-03T03:39:17;101201.78;;;1.93;69.96
19005;BME280;9635;52.078;8.648;2023-03-03T03:44:25;101203.69;;;1.89;69.98
19005;BME280;9635;52.078;8.648;2023-03-03T03:49:28;101196.72;;;1.85;69.79
19005;BME280;9635;52.078;8.648;2023-03-03T03:54:32;101200.53;;;1.77;70.06
19005;BME280;9635;52.078;8.648;2023-03-03T03:59:36;101202.59;;;1.67;69.87
19005;BME280;9635;52.078;8.648;2023-03-03T04:04:40;101199.84;;;1.70;69.72
19005;BME280;9635;52.078;8.648;2023-03-03T04:09:43;101199.59;;;1.49;69.97
19005;BME280;9635;52.078;8.648;2023-03-03T04:14:47;101194.03;;;1.59;69.93
19005;BME280;9635;52.078;8.648;2023-03-03T04:19:51;101187.94;;;1.57;69.89
19005;BME280;9635;52.078;8.648;2023-03-03T04:24:55;101183.31;;;1.62;69.97
19005;BME280;9635;52.078;8.648;2023-03-03T04:30:00;101186.91;;;1.61;69.74
19005;BME280;9635;52.078;8.648;2023-03-03T04:35:04;101186.88;;;1.62;69.49
19005;BME280;9635;52.078;8.648;2023-03-03T04:40:11;101185.81;;;1.68;69.32
19005;BME280;9635;52.078;8.648;2023-03-03T04:45:17;101191.97;;;1.68;69.27
19005;BME280;9635;52.078;8.648;2023-03-03T04:50:21;101185.00;;;1.64;69.48
19005;BME280;9635;52.078;8.648;2023-03-03T04:55:24;101199.09;;;1.66;69.49
19005;BME280;9635;52.078;8.648;2023-03-03T05:00:28;101214.34;;;1.58;69.80
19005;BME280;9635;52.078;8.648;2023-03-03T05:05:32;101223.34;;;1.53;69.82
19005;BME280;9635;52.078;8.648;2023-03-03T05:10:35;101224.19;;;1.55;70.08
19005;BME280;9635;52.078;8.648;2023-03-03T05:15:39;101231.41;;;1.48;70.12
19005;BME280;9635;52.078;8.648;2023-03-03T05:20:43;101225.06;;;1.54;70.45
19005;BME280;9635;52.078;8.648;2023-03-03T05:25:47;101233.16;;;1.49;70.92
19005;BME280;9635;52.078;8.648;2023-03-03T05:30:51;101240.28;;;1.47;71.22
19005;BME280;9635;52.078;8.648;2023-03-03T05:35:54;101238.72;;;1.40;71.32
19005;BME280;9635;52.078;8.648;2023-03-03T05:40:57;101231.59;;;1.42;71.47
19005;BME280;9635;52.078;8.648;2023-03-03T05:46:02;101232.66;;;1.36;71.00
19005;BME280;9635;52.078;8.648;2023-03-03T05:51:05;101229.97;;;1.38;71.05
19005;BME280;9635;52.078;8.648;2023-03-03T05:56:08;101217.69;;;1.35;71.08
19005;BME280;9635;52.078;8.648;2023-03-03T06:01:12;101223.28;;;1.24;70.77
19005;BME280;9635;52.078;8.648;2023-03-03T06:06:15;101225.25;;;1.18;70.97
19005;BME280;9635;52.078;8.648;2023-03-03T06:11:19;101231.28;;;1.23;70.92
19005;BME280;9635;52.078;8.648;2023-03-03T06:16:24;101228.38;;;1.32;70.80
19005;BME280;9635;52.078;8.648;2023-03-03T06:21:27;101241.56;;;1.34;70.39
19005;BME280;9635;52.078;8.648;2023-03-03T06:26:30;101242.38;;;1.36;70.58
19005;BME280;9635;52.078;8.648;2023-03-03T06:31:34;101251.16;;;1.38;70.44
19005;BME280;9635;52.078;8.648;2023-03-03T06:36:37;101257.97;;;1.46;70.67
19005;BME280;9635;52.078;8.648;2023-03-03T06:41:40;101250.03;;;1.45;70.11
19005;BME280;9635;52.078;8.648;2023-03-03T06:46:44;101266.13;;;1.39;69.66
19005;BME280;9635;52.078;8.648;2023-03-03T06:51:47;101279.03;;;1.51;70.01
19005;BME280;9635;52.078;8.648;2023-03-03T06:56:58;101272.97;;;1.46;69.65
19005;BME280;9635;52.078;8.648;2023-03-03T07:02:12;101288.78;;;1.49;69.66
19005;BME280;9635;52.078;8.648;2023-03-03T07:07:18;101295.69;;;1.55;69.51
19005;BME280;9635;52.078;8.648;2023-03-03T07:12:23;101302.75;;;1.54;69.51
19005;BME280;9635;52.078;8.648;2023-03-03T07:17:30;101310.75;;;1.53;68.72
19005;BME280;9635;52.078;8.648;2023-03-03T07:22:32;101313.34;;;1.54;69.07
19005;BME280;9635;52.078;8.648;2023-03-03T07:27:36;101311.88;;;1.44;69.07
19005;BME280;9635;52.078;8.648;2023-03-03T07:32:42;101313.66;;;2.03;70.65
19005;BME280;9635;52.078;8.648;2023-03-03T07:37:46;101311.06;;;2.57;68.03
19005;BME280;9635;52.078;8.648;2023-03-03T07:42:50;101316.78;;;2.98;66.16
19005;BME280;9635;52.078;8.648;2023-03-03T07:48:08;101330.59;;;3.08;65.04
19005;BME280;9635;52.078;8.648;2023-03-03T07:53:23;101330.91;;;2.99;63.90
19005;BME280;9635;52.078;8.648;2023-03-03T07:58:35;101330.72;;;2.78;64.13
19005;BME280;9635;52.078;8.648;2023-03-03T08:03:41;101338.31;;;2.63;64.76
19005;BME280;9635;52.078;8.648;2023-03-03T08:08:46;101344.03;;;2.49;64.68
19005;BME280;9635;52.078;8.648;2023-03-03T08:13:48;101349.09;;;2.58;65.32
19005;BME280;9635;52.078;8.648;2023-03-03T08:18:52;101347.84;;;2.68;64.56
19005;BME280;9635;52.078;8.648;2023-03-03T08:23:55;101343.53;;;2.66;64.82
19005;BME280;9635;52.078;8.648;2023-03-03T08:28:58;101340.38;;;2.81;64.50
19005;BME280;9635;52.078;8.648;2023-03-03T08:34:03;101333.88;;;2.90;64.18
19005;BME280;9635;52.078;8.648;2023-03-03T08:39:06;101348.81;;;2.94;63.79
19005;BME280;9635;52.078;8.648;2023-03-03T08:44:10;101342.88;;;2.86;63.96
19005;BME280;9635;52.078;8.648;2023-03-03T08:49:14;101341.94;;;2.87;63.99
19005;BME280;9635;52.078;8.648;2023-03-03T08:54:17;101354.34;;;2.86;64.05
19005;BME280;9635;52.078;8.648;2023-03-03T08:59:20;101346.44;;;2.84;63.57
19005;BME280;9635;52.078;8.648;2023-03-03T09:04:24;101340.84;;;2.94;63.71
19005;BME280;9635;52.078;8.648;2023-03-03T09:09:28;101346.16;;;3.19;63.04
19005;BME280;9635;52.078;8.648;2023-03-03T09:14:31;101352.56;;;3.13;62.17
19005;BME280;9635;52.078;8.648;2023-03-03T09:19:35;101360.91;;;3.27;62.39
19005;BME280;9635;52.078;8.648;2023-03-03T09:24:41;101363.44;;;3.56;62.19
19005;BME280;9635;52.078;8.648;2023-03-03T09:29:44;101361.25;;;3.67;61.71
19005;BME280;9635;52.078;8.648;2023-03-03T09:34:48;101363.66;;;3.49;61.24
19005;BME280;9635;52.078;8.648;2023-03-03T09:39:52;101369.72;;;3.53;61.68
19005;BME280;9635;52.078;8.648;2023-03-03T09:45:12;101366.63;;;3.65;61.92
19005;BME280;9635;52.078;8.648;2023-03-03T09:50:30;101381.22;;;3.79;61.14
19005;BME280;9635;52.078;8.648;2023-03-03T09:55:40;101377.47;;;3.84;60.92
19005;BME280;9635;52.078;8.648;2023-03-03T10:00:54;101382.16;;;3.53;60.64
19005;BME280;9635;52.078;8.648;2023-03-03T10:06:07;101383.09;;;3.75;60.63
19005;BME280;9635;52.078;8.648;2023-03-03T10:11:17;101389.19;;;3.54;60.80
19005;BME280;9635;52.078;8.648;2023-03-03T10:16:35;101390.94;;;3.55;60.88
19005;BME280;9635;52.078;8.648;2023-03-03T10:21:49;101387.06;;;3.63;61.57
19005;BME280;9635;52.078;8.648;2023-03-03T10:27:10;101396.47;;;3.97;60.57
19005;BME280;9635;52.078;8.648;2023-03-03T10:32:40;101387.09;;;4.34;59.14
19005;BME280;9635;52.078;8.648;2023-03-03T10:37:57;101387.16;;;4.54;58.13
19005;BME280;9635;52.078;8.648;2023-03-03T10:43:24;101386.44;;;4.73;57.92
19005;BME280;9635;52.078;8.648;2023-03-03T10:48:56;101386.00;;;4.61;57.34
19005;BME280;9635;52.078;8.648;2023-03-03T10:54:16;101393.44;;;4.75;57.84
19005;BME280;9635;52.078;8.648;2023-03-03T10:59:36;101398.50;;;5.03;56.69
19005;BME280;9635;52.078;8.648;2023-03-03T11:05:12;101390.47;;;5.05;56.26
19005;BME280;9635;52.078;8.648;2023-03-03T11:10:23;101391.44;;;3.41;58.99
19005;BME280;9635;52.078;8.648;2023-03-03T11:15:54;101389.19;;;3.79;60.26
19005;BME280;9635;52.078;8.648;2023-03-03T11:21:07;101385.84;;;3.73;60.34
19005;BME280;9635;52.078;8.648;2023-03-03T11:26:20;101379.75;;;3.70;60.70
19005;BME280;9635;52.078;8.648;2023-03-03T11:31:34;101375.91;;;4.48;60.01
19005;BME280;9635;52.078;8.648;2023-03-03T11:36:43;101373.50;;;5.08;57.58
19005;BME280;9635;52.078;8.648;2023-03-03T11:41:57;101370.69;;;5.31;57.09
19005;BME280;9635;52.078;8.648;2023-03-03T11:47:05;101363.38;;;4.94;57.42
19005;BME280;9635;52.078;8.648;2023-03-03T11:52:21;101368.03;;;5.52;56.00
19005;BME280;9635;52.078;8.648;2023-03-03T11:57:31;101369.09;;;5.27;55.63
19005;BME280;9635;52.078;8.648;2023-03-03T12:03:13;101355.63;;;5.90;55.32
19005;BME280;9635;52.078;8.648;2023-03-03T12:08:31;101354.22;;;6.93;52.67
19005;BME280;9635;52.078;8.648;2023-03-03T12:13:48;101345.94;;;6.99;52.02
19005;BME280;9635;52.078;8.648;2023-03-03T12:19:04;101344.13;;;4.87;56.22
19005;BME280;9635;52.078;8.648;2023-03-03T12:24:25;101344.94;;;4.23;59.37
19005;BME280;9635;52.078;8.648;2023-03-03T12:29:40;101333.34;;;4.90;59.77
19005;BME280;9635;52.078;8.648;2023-03-03T12:34:50;101330.38;;;4.55;59.19
19005;BME280;9635;52.078;8.648;2023-03-03T12:40:04;101325.03;;;4.11;60.11
19005;BME280;9635;52.078;8.648;2023-03-03T12:45:21;101323.00;;;5.04;60.42
19005;BME280;9635;52.078;8.648;2023-03-03T12:50:35;101309.06;;;6.16;56.00
19005;BME280;9635;52.078;8.648;2023-03-03T12:55:48;101304.31;;;6.59;55.45
19005;BME280;9635;52.078;8.648;2023-03-03T13:00:59;101300.84;;;8.09;49.84
19005;BME280;9635;52.078;8.648;2023-03-03T13:06:15;101301.72;;;6.75;51.79
19005;BME280;9635;52.078;8.648;2023-03-03T13:11:45;101300.91;;;6.55;53.09
19005;BME280;9635;52.078;8.648;2023-03-03T13:17:03;101297.13;;;7.13;52.41
19005;BME280;9635;52.078;8.648;2023-03-03T13:22:13;101301.00;;;5.99;54.56
19005;BME280;9635;52.078;8.648;2023-03-03T13:27:19;101295.56;;;7.42;52.40
19005;BME280;9635;52.078;8.648;2023-03-03T13:32:31;101276.41;;;7.83;51.38
19005;BME280;9635;52.078;8.648;2023-03-03T13:37:40;101288.63;;;6.34;54.41
19005;BME280;9635;52.078;8.648;2023-03-03T13:42:47;101274.94;;;7.78;49.71
19005;BME280;9635;52.078;8.648;2023-03-03T13:47:59;101273.63;;;6.31;54.62
19005;BME280;9635;52.078;8.648;2023-03-03T13:53:24;101262.84;;;10.50;47.65
19005;BME280;9635;52.078;8.648;2023-03-03T13:58:34;101256.13;;;10.30;45.93
19005;BME280;9635;52.078;8.648;2023-03-03T14:03:54;101257.44;;;10.65;46.07
19005;BME280;9635;52.078;8.648;2023-03-03T14:09:09;101257.97;;;9.74;46.08
19005;BME280;9635;52.078;8.648;2023-03-03T14:14:26;101259.56;;;10.32;45.28
19005;BME280;9635;52.078;8.648;2023-03-03T14:19:39;101249.66;;;11.00;43.62
19005;BME280;9635;52.078;8.648;2023-03-03T14:25:09;101259.00;;;9.28;46.11
19005;BME280;9635;52.078;8.648;2023-03-03T14:30:31;101256.13;;;9.03;48.34
19005;BME280;9635;52.078;8.648;2023-03-03T14:35:37;101248.03;;;8.28;48.44
19005;BME280;9635;52.078;8.648;2023-03-03T14:40:41;101241.78;;;8.74;48.84
19005;BME280;9635;52.078;8.648;2023-03-03T14:45:45;101230.94;;;9.77;46.61
19005;BME280;9635;52.078;8.648;2023-03-03T14:50:51;101238.72;;;8.66;48.70
19005;BME280;9635;52.078;8.648;2023-03-03T14:56:14;101222.22;;;9.59;46.42
19005;BME280;9635;52.078;8.648;2023-03-03T15:01:22;101218.53;;;9.33;47.04
19005;BME280;9635;52.078;8.648;2023-03-03T15:06:34;101214.38;;;8.99;47.74
19005;BME280;9635;52.078;8.648;2023-03-03T15:11:37;101217.13;;;8.53;48.72
19005;BME280;9635;52.078;8.648;2023-03-03T15:16:40;101213.03;;;8.92;48.76
19005;BME280;9635;52.078;8.648;2023-03-03T15:21:54;101214.19;;;8.42;49.35
19005;BME280;9635;52.078;8.648;2023-03-03T15:27:03;101208.78;;;8.73;48.97
19005;BME280;9635;52.078;8.648;2023-03-03T15:32:14;101195.75;;;8.37;48.95
19005;BME280;9635;52.078;8.648;2023-03-03T15:37:32;101185.47;;;8.75;48.76
19005;BME280;9635;52.078;8.648;2023-03-03T15:42:47;101188.94;;;8.31;49.14
19005;BME280;9635;52.078;8.648;2023-03-03T15:48:03;101180.81;;;8.33;49.57
19005;BME280;9635;52.078;8.648;2023-03-03T15:53:24;101182.84;;;7.34;51.67
19005;BME280;9635;52.078;8.648;2023-03-03T16:03:58;101180.47;;;6.27;54.33
19005;BME280;9635;52.078;8.648;2023-03-03T16:09:16;101183.66;;;6.33;54.94
19005;BME280;9635;52.078;8.648;2023-03-03T16:14:41;101177.16;;;6.56;54.89
19005;BME280;9635;52.078;8.648;2023-03-03T16:20:04;101184.38;;;6.54;54.18
19005;BME280;9635;52.078;8.648;2023-03-03T16:25:27;101188.31;;;5.76;56.47
19005;BME280;9635;52.078;8.648;2023-03-03T16:30:36;101196.56;;;5.89;56.76
19005;BME280;9635;52.078;8.648;2023-03-03T16:35:52;101192.69;;;5.39;57.79
19005;BME280;9635;52.078;8.648;2023-03-03T16:40:57;101193.31;;;4.66;59.26
19005;BME280;9635;52.078;8.648;2023-03-03T16:46:05;101192.50;;;5.04;59.30
19005;BME280;9635;52.078;8.648;2023-03-03T16:51:30;101202.72;;;4.93;58.96
19005;BME280;9635;52.078;8.648;2023-03-03T16:56:42;101197.22;;;4.57;59.96
19005;BME280;9635;52.078;8.648;2023-03-03T17:01:49;101192.19;;;4.51;60.01
19005;BME280;9635;52.078;8.648;2023-03-03T17:07:00;101192.81;;;4.35;60.60
19005;BME280;9635;52.078;8.648;2023-03-03T17:17:40;101187.19;;;4.01;62.06
19005;BME280;9635;52.078;8.648;2023-03-03T17:22:53;101192.06;;;3.89;62.42
19005;BME280;9635;52.078;8.648;2023-03-03T17:28:13;101196.94;;;3.78;63.07
19005;BME280;9635;52.078;8.648;2023-03-03T17:33:33;101196.19;;;3.75;63.52
19005;BME280;9635;52.078;8.648;2023-03-03T17:38:49;101195.94;;;3.59;64.47
19005;BME280;9635;52.078;8.648;2023-03-03T17:44:01;101193.69;;;3.48;65.09
19005;BME280;9635;52.078;8.648;2023-03-03T17:55:20;101202.50;;;3.72;64.68
19005;BME280;9635;52.078;8.648;2023-03-03T18:00:32;101208.03;;;3.44;65.36
19005;BME280;9635;52.078;8.648;2023-03-03T18:05:46;101205.88;;;3.54;65.43
19005;BME280;9635;52.078;8.648;2023-03-03T18:11:14;101210.97;;;3.36;66.48
19005;BME280;9635;52.078;8.648;2023-03-03T18:16:27;101209.94;;;3.40;66.45
19005;BME280;9635;52.078;8.648;2023-03-03T18:21:42;101217.94;;;3.15;67.26
19005;BME280;9635;52.078;8.648;2023-03-03T18:26:46;101220.13;;;3.04;66.97
19005;BME280;9635;52.078;8.648;2023-03-03T18:32:16;101221.63;;;3.11;68.01
19005;BME280;9635;52.078;8.648;2023-03-03T18:37:38;101222.81;;;3.27;66.89
19005;BME280;9635;52.078;8.648;2023-03-03T18:42:44;101223.03;;;3.21;67.94
19005;BME280;9635;52.078;8.648;2023-03-03T18:48:03;101224.88;;;3.19;68.40
19005;BME280;9635;52.078;8.648;2023-03-03T18:53:16;101224.94;;;3.65;66.62
19005;BME280;9635;52.078;8.648;2023-03-03T18:58:36;101233.91;;;3.62;66.58
19005;BME280;9635;52.078;8.648;2023-03-03T19:03:55;101237.16;;;3.69;66.55
19005;BME280;9635;52.078;8.648;2023-03-03T19:09:03;101241.50;;;3.48;67.11
19005;BME280;9635;52.078;8.648;2023-03-03T19:14:31;101235.22;;;3.27;67.94
19005;BME280;9635;52.078;8.648;2023-03-03T19:19:59;101239.44;;;3.33;67.79
19005;BME280;9635;52.078;8.648;2023-03-03T19:25:14;101231.41;;;3.34;67.00
19005;BME280;9635;52.078;8.648;2023-03-03T19:30:35;101228.56;;;3.39;67.06
19005;BME280;9635;52.078;8.648;2023-03-03T19:35:53;101230.31;;;3.40;66.97
19005;BME280;9635;52.078;8.648;2023-03-03T19:41:02;101240.41;;;3.54;66.81
19005;BME280;9635;52.078;8.648;2023-03-03T19:46:26;101233.13;;;3.59;66.58
19005;BME280;9635;52.078;8.648;2023-03-03T19:51:35;101235.44;;;3.68;66.17
19005;BME280;9635;52.078;8.648;2023-03-03T19:56:44;101228.66;;;3.59;66.08
19005;BME280;9635;52.078;8.648;2023-03-03T20:01:58;101237.16;;;3.45;66.58
19005;BME280;9635;52.078;8.648;2023-03-03T20:07:13;101228.63;;;3.84;65.96
19005;BME280;9635;52.078;8.648;2023-03-03T20:12:27;101232.34;;;3.57;66.67
19005;BME280;9635;52.078;8.648;2023-03-03T20:17:47;101240.06;;;3.39;66.91
19005;BME280;9635;52.078;8.648;2023-03-03T20:22:56;101242.69;;;3.41;66.95
19005;BME280;9635;52.078;8.648;2023-03-03T20:28:10;101222.81;;;3.27;67.07
19005;BME280;9635;52.078;8.648;2023-03-03T20:33:34;101224.28;;;3.11;67.69
19005;BME280;9635;52.078;8.648;2023-03-03T20:38:48;101224.09;;;3.41;66.74
19005;BME280;9635;52.078;8.648;2023-03-03T20:44:02;101226.13;;;3.80;65.86
19005;BME280;9635;52.078;8.648;2023-03-03T20:49:20;101227.09;;;3.77;65.76
19005;BME280;9635;52.078;8.648;2023-03-03T20:54:31;101212.75;;;3.36;67.00
19005;BME280;9635;52.078;8.648;2023-03-03T20:59:42;101218.69;;;3.66;66.08
19005;BME280;9635;52.078;8.648;2023-03-03T21:05:06;101218.50;;;3.48;66.21
19005;BME280;9635;52.078;8.648;2023-03-03T21:10:12;101220.06;;;3.76;65.74
19005;BME280;9635;52.078;8.648;2023-03-03T21:15:34;101222.19;;;3.90;65.45
19005;BME280;9635;52.078;8.648;2023-03-03T21:20:38;101228.94;;;3.75;65.52
19005;BME280;9635;52.078;8.648;2023-03-03T21:25:44;101229.13;;;3.48;66.51
19005;BME280;9635;52.078;8.648;2023-03-03T21:31:02;101220.03;;;3.31;66.27
19005;BME280;9635;52.078;8.648;2023-03-03T21:36:07;101221.81;;;3.54;66.38
19005;BME280;9635;52.078;8.648;2023-03-03T21:41:10;101235.75;;;3.60;65.94
19005;BME280;9635;52.078;8.648;2023-03-03T21:46:16;101226.38;;;3.50;66.54
19005;BME280;9635;52.078;8.648;2023-03-03T21:51:21;101220.09;;;3.53;66.48
19005;BME280;9635;52.078;8.648;2023-03-03T21:56:24;101219.19;;;3.76;65.94
19005;BME280;9635;52.078;8.648;2023-03-03T22:01:27;101220.81;;;3.56;66.06
19005;BME280;9635;52.078;8.648;2023-03-03T22:06:31;101210.72;;;3.66;66.37
19005;BME280;9635;52.078;8.648;2023-03-03T22:11:34;101217.16;;;3.82;66.04
19005;BME280;9635;52.078;8.648;2023-03-03T22:16:38;101209.56;;;3.95;65.43
19005;BME280;9635;52.078;8.648;2023-03-03T22:21:43;101208.47;;;4.01;65.47
19005;BME280;9635;52.078;8.648;2023-03-03T22:26:47;101201.91;;;3.87;64.37
19005;BME280;9635;52.078;8.648;2023-03-03T22:31:50;101210.75;;;3.64;65.01
19005;BME280;9635;52.078;8.648;2023-03-03T22:36:54;101203.19;;;3.77;65.58
19005;BME280;9635;52.078;8.648;2023-03-03T22:41:57;101203.34;;;3.72;65.30
19005;BME280;9635;52.078;8.648;2023-03-03T22:46:59;101196.59;;;3.87;64.71
19005;BME280;9635;52.078;8.648;2023-03-03T22:52:04;101189.72;;;3.82;64.98
19005;BME280;9635;52.078;8.648;2023-03-03T22:57:06;101184.59;;;3.99;64.68
19005;BME280;9635;52.078;8.648;2023-03-03T23:02:09;101179.56;;;3.91;64.11
19005;BME280;9635;52.078;8.648;2023-03-03T23:07:13;101184.16;;;3.88;64.67
19005;BME280;9635;52.078;8.648;2023-03-03T23:12:16;101178.66;;;3.92;64.64
19005;BME280;9635;52.078;8.648;2023-03-03T23:17:19;101178.41;;;3.99;64.64
19005;BME280;9635;52.078;8.648;2023-03-03T23:22:23;101175.25;;;3.89;64.89
19005;BME280;9635;52.078;8.648;2023-03-03T23:27:26;101179.78;;;3.87;64.67
19005;BME280;9635;52.078;8.648;2023-03-03T23:32:28;101177.13;;;3.87;64.02
19005;BME280;9635;52.078;8.648;2023-03-03T23:37:33;101174.25;;;4.13;63.71
19005;BME280;9635;52.078;8.648;2023-03-03T23:42:35;101173.44;;;3.67;65.67
19005;BME280;9635;52.078;8.648;2023-03-03T23:47:38;101183.63;;;4.00;63.98
19005;BME280;9635;52.078;8.648;2023-03-03T23:52:42;101177.72;;;3.93;63.50
19005;BME280;9635;52.078;8.648;2023-03-03T23:57:45;101174.72;;;4.23;63.51
